Time;durP1;ratioP1;P1;durP2;ratioP2;P2;SDS_P1;SDS_P2;PMS_P1;PMS_P2;Temp;Humidity;BMP_temperature;BMP_pressure;BME280_temperature;BME280_humidity;BME280_pressure;Samples;Min_cycle;Max_cycle;Signal;HPM_P1;HPM_P2
2020/12/27 09:01:45;;;;;;;11.90;10.90;;;0.40;99.90;;;;;;5869406;23;20405;-85
2020/12/27 09:04:24;;;;;;;12.07;11.27;;;0.40;99.90;;;;;;4947531;29;20834;-86
2020/12/27 09:07:12;;;;;;;;;;;;;;;;;;;;;
2020/12/27 09:10:11;;;;;;;;;;;;;;;;;;;;;
2020/12/27 09:13:03;;;;;;;10.87;10.17;;;0.70;99.90;;;;;;4938176;29;20452;-87
2020/12/27 09:15:37;;;;;;;13.00;12.20;;;0.60;99.90;;;;;;4933379;29;20477;-85
2020/12/27 09:18:06;;;;;;;11.60;10.87;;;0.70;99.90;;;;;;4932562;29;20452;-85
2020/12/27 09:20:34;;;;;;;11.60;10.80;;;0.70;99.90;;;;;;4950115;29;20584;-87
2020/12/27 09:23:08;;;;;;;11.27;10.47;;;0.80;99.90;;;;;;4947422;29;20546;-85
2020/12/27 09:25:34;;;;;;;10.77;9.97;;;1.00;99.90;;;;;;4935662;29;20803;-87
2020/12/27 09:28:12;;;;;;;10.63;9.03;;;1.20;99.90;;;;;;4933816;29;20463;-87
2020/12/27 09:30:39;;;;;;;10.67;10.07;;;1.30;99.90;;;;;;4933269;29;20557;-87
2020/12/27 09:33:06;;;;;;;10.97;10.37;;;1.30;99.90;;;;;;4932295;29;20501;-87
2020/12/27 09:45:52;;;;;;;13.10;12.20;;;1.50;99.90;;;;;;4794038;29;21053;-87
2020/12/27 09:48:19;;;;;;;12.93;12.10;;;1.40;99.90;;;;;;4835404;29;20466;-85
2020/12/27 09:50:45;;;;;;;11.60;10.90;;;1.50;99.90;;;;;;4935524;29;20679;-88
2020/12/27 09:53:18;;;;;;;10.67;10.07;;;1.60;99.90;;;;;;4940887;29;20480;-91
2020/12/27 09:55:45;;;;;;;13.07;12.27;;;1.70;99.90;;;;;;4955390;29;20863;-88
2020/12/27 09:58:12;;;;;;;12.17;11.27;;;1.90;99.90;;;;;;4956552;29;20549;-88
2020/12/27 10:00:46;;;;;;;11.23;10.53;;;2.00;99.90;;;;;;4957450;29;20491;-91
2020/12/27 10:11:10;;;;;;;12.03;11.33;;;2.00;99.90;;;;;;4929605;29;20441;-89
2020/12/27 10:13:55;;;;;;;12.87;12.07;;;2.10;99.90;;;;;;4835492;29;20468;-88
2020/12/27 10:17:16;;;;;;;;;;;;;;;;;;;;;
2020/12/27 10:31:04;;;;;;;13.70;12.80;;;1.70;99.90;;;;;;4727920;30;20432;-90
2020/12/27 10:34:12;;;;;;;13.70;12.73;;;1.70;99.90;;;;;;4821062;29;20477;-90
2020/12/27 10:36:38;;;;;;;13.00;12.07;;;1.80;99.90;;;;;;4856737;29;20459;-88
2020/12/27 10:39:19;;;;;;;13.07;12.07;;;1.80;99.90;;;;;;4895886;29;20997;-89
2020/12/27 10:42:14;;;;;;;14.77;13.53;;;1.80;99.90;;;;;;4928639;29;20457;-89
2020/12/27 10:44:43;;;;;;;13.53;12.53;;;1.70;99.90;;;;;;4962373;29;20512;-89
2020/12/27 10:47:13;;;;;;;14.47;13.17;;;1.70;99.90;;;;;;4960663;28;21038;-88
2020/12/27 10:49:50;;;;;;;13.83;12.60;;;1.90;99.90;;;;;;4960302;29;20553;-89
2020/12/27 10:52:17;;;;;;;14.10;13.00;;;2.00;99.90;;;;;;4944602;28;20481;-87
2020/12/27 10:54:46;;;;;;;14.60;13.47;;;2.10;99.90;;;;;;4944819;29;20474;-88
2020/12/27 10:57:12;;;;;;;14.87;13.53;;;2.00;99.90;;;;;;4936648;29;20463;-88
2020/12/27 10:59:38;;;;;;;14.93;13.83;;;2.10;99.90;;;;;;4936194;29;20466;-89
2020/12/27 11:02:07;;;;;;;14.60;13.63;;;2.10;99.90;;;;;;4918371;29;20478;-89
2020/12/27 11:04:38;;;;;;;13.60;12.47;;;2.10;99.90;;;;;;4923439;29;20545;-89
2020/12/27 11:07:07;;;;;;;14.97;13.53;;;2.00;99.90;;;;;;4919024;29;20515;-88
2020/12/27 11:09:34;;;;;;;15.10;14.00;;;1.90;99.90;;;;;;4947938;29;20462;-88
2020/12/27 11:12:00;;;;;;;13.33;12.43;;;1.90;99.90;;;;;;4961963;29;21069;-88
2020/12/27 11:14:35;;;;;;;13.60;12.70;;;2.00;99.90;;;;;;4960438;29;20958;-88
2020/12/27 11:17:04;;;;;;;13.03;11.97;;;2.20;99.90;;;;;;4960712;29;20862;-88
2020/12/27 11:19:37;;;;;;;14.43;13.33;;;2.20;99.90;;;;;;4961337;29;20466;-90
2020/12/27 11:22:10;;;;;;;14.30;13.20;;;2.10;99.90;;;;;;4965629;28;20971;-88
2020/12/27 11:25:00;;;;;;;14.10;12.87;;;2.20;99.90;;;;;;4979312;28;20441;-89
2020/12/27 11:27:31;;;;;;;12.90;12.10;;;2.40;99.90;;;;;;4976400;29;20460;-88
2020/12/27 11:30:00;;;;;;;14.10;13.20;;;2.30;99.90;;;;;;4964086;29;20469;-88
2020/12/27 11:35:51;;;;;;;13.90;13.00;;;2.20;99.90;;;;;;4958178;29;20446;-90
2020/12/27 11:38:24;;;;;;;12.10;11.30;;;2.10;99.90;;;;;;4965644;29;20455;-90
2020/12/27 11:40:50;;;;;;;13.77;12.90;;;2.10;99.90;;;;;;4966061;29;20465;-88
2020/12/27 11:43:37;;;;;;;13.30;12.40;;;2.20;99.90;;;;;;4970531;28;20488;-90
2020/12/27 11:46:44;;;;;;;13.03;12.20;;;2.30;99.90;;;;;;4954047;29;20832;-91
2020/12/27 11:49:14;;;;;;;15.30;14.30;;;2.40;99.90;;;;;;4944324;29;20470;-89
2020/12/27 11:51:42;;;;;;;12.07;11.30;;;2.50;99.90;;;;;;4953982;29;20548;-89
2020/12/27 11:54:08;;;;;;;12.57;11.70;;;2.60;99.90;;;;;;4952533;28;20960;-86
2020/12/27 11:56:36;;;;;;;13.87;12.87;;;2.70;99.90;;;;;;4952747;29;20982;-86
2020/12/27 11:59:02;;;;;;;12.80;11.90;;;2.70;99.90;;;;;;4952633;28;20533;-87
2020/12/27 12:01:28;;;;;;;13.07;12.23;;;2.70;99.90;;;;;;4953003;29;20485;-87
2020/12/27 12:04:00;;;;;;;13.03;12.13;;;2.70;99.90;;;;;;4953284;29;21001;-88
2020/12/27 12:06:27;;;;;;;13.03;12.23;;;2.80;99.90;;;;;;4953291;29;20459;-87
2020/12/27 12:08:54;;;;;;;13.00;12.10;;;2.80;99.90;;;;;;4955112;29;20519;-88
2020/12/27 12:11:23;;;;;;;12.57;11.67;;;2.80;99.90;;;;;;4952650;29;20452;-88
2020/12/27 12:13:50;;;;;;;12.60;11.30;;;2.90;99.90;;;;;;4952809;29;20469;-88
2020/12/27 12:16:20;;;;;;;17.10;12.37;;;3.00;99.90;;;;;;4952836;29;20456;-87
2020/12/27 12:18:47;;;;;;;11.77;10.97;;;3.10;99.90;;;;;;4952467;29;20961;-86
2020/12/27 12:21:14;;;;;;;11.80;11.00;;;3.10;99.90;;;;;;4956089;28;20981;-86
2020/12/27 12:23:40;;;;;;;13.03;12.23;;;3.20;99.90;;;;;;4950421;29;20496;-85
2020/12/27 12:26:07;;;;;;;12.10;11.40;;;3.40;99.90;;;;;;4953138;28;20477;-85
2020/12/27 12:28:44;;;;;;;13.43;12.33;;;3.30;99.90;;;;;;4952748;29;20562;-86
2020/12/27 12:31:11;;;;;;;11.53;10.83;;;3.30;99.90;;;;;;4952954;29;20515;-86
2020/12/27 12:33:37;;;;;;;11.40;10.80;;;3.40;99.90;;;;;;4952573;29;20549;-86
2020/12/27 12:36:03;;;;;;;11.20;10.50;;;3.30;99.90;;;;;;4952507;29;20507;-84
2020/12/27 12:38:30;;;;;;;13.07;12.17;;;3.50;99.90;;;;;;4952426;29;20969;-88
2020/12/27 12:40:56;;;;;;;12.23;11.53;;;3.40;99.90;;;;;;4954218;29;20437;-89
2020/12/27 12:43:23;;;;;;;11.80;11.20;;;3.30;99.90;;;;;;4953163;29;20492;-88
2020/12/27 12:45:49;;;;;;;13.00;12.03;;;3.40;99.90;;;;;;4952670;29;20475;-88
2020/12/27 12:48:16;;;;;;;13.37;12.50;;;3.30;99.90;;;;;;4953244;29;20532;-86
2020/12/27 12:50:42;;;;;;;12.83;11.93;;;3.40;99.90;;;;;;4952764;29;20453;-86
2020/12/27 12:53:08;;;;;;;11.90;11.20;;;3.50;99.90;;;;;;4952461;29;20820;-87
2020/12/27 12:55:34;;;;;;;13.00;12.20;;;3.50;99.90;;;;;;4952739;29;20567;-86
2020/12/27 12:58:01;;;;;;;12.97;12.17;;;3.40;99.90;;;;;;4952174;29;20485;-86
2020/12/27 13:00:28;;;;;;;11.20;10.70;;;3.50;99.90;;;;;;4952117;29;20476;-87
2020/12/27 13:02:54;;;;;;;11.33;10.70;;;3.50;99.90;;;;;;4952791;29;20488;-88
2020/12/27 13:05:20;;;;;;;11.03;10.43;;;3.60;99.90;;;;;;4952416;29;20449;-86
2020/12/27 13:07:47;;;;;;;12.33;11.53;;;3.50;99.90;;;;;;4953934;29;20489;-86
2020/12/27 13:10:14;;;;;;;12.67;11.47;;;3.50;99.90;;;;;;4953096;28;20839;-86
2020/12/27 13:12:40;;;;;;;11.03;10.27;;;3.50;99.90;;;;;;4956442;29;20449;-86
2020/12/27 13:15:06;;;;;;;12.80;11.80;;;3.50;99.90;;;;;;4956392;29;20525;-87
2020/12/27 13:17:34;;;;;;;11.80;11.03;;;3.50;99.90;;;;;;4956793;29;20466;-87
2020/12/27 13:20:00;;;;;;;11.20;10.33;;;3.60;99.90;;;;;;4956400;29;20456;-87
2020/12/27 13:22:26;;;;;;;11.97;10.87;;;3.50;99.90;;;;;;4957127;29;20542;-87
2020/12/27 13:24:52;;;;;;;10.30;9.70;;;3.50;99.90;;;;;;4956336;29;20499;-87
2020/12/27 13:27:19;;;;;;;10.73;10.13;;;3.50;99.90;;;;;;4956694;29;20510;-87
2020/12/27 13:29:45;;;;;;;10.03;9.53;;;3.60;99.90;;;;;;4962142;29;20440;-87
2020/12/27 13:32:11;;;;;;;12.60;11.60;;;3.60;99.90;;;;;;4979537;28;20442;-87
2020/12/27 13:34:39;;;;;;;10.87;10.17;;;3.50;99.90;;;;;;4972430;29;20514;-86
2020/12/27 13:37:06;;;;;;;11.33;10.40;;;3.50;99.90;;;;;;4955911;29;20950;-86
2020/12/27 13:39:32;;;;;;;12.87;11.93;;;3.40;99.90;;;;;;4956780;29;20470;-87
2020/12/27 13:41:58;;;;;;;10.47;9.77;;;3.40;99.90;;;;;;4959274;29;20464;-87
2020/12/27 13:44:25;;;;;;;10.53;9.53;;;3.40;99.90;;;;;;4959096;28;20488;-87
2020/12/27 13:46:54;;;;;;;11.00;10.37;;;3.40;99.90;;;;;;4961038;28;20487;-88
2020/12/27 13:49:21;;;;;;;12.13;11.37;;;3.40;99.90;;;;;;4960863;29;20503;-87
2020/12/27 13:51:48;;;;;;;12.00;11.03;;;3.40;99.90;;;;;;4955996;29;20449;-88
2020/12/27 13:54:14;;;;;;;11.53;10.83;;;3.40;99.90;;;;;;4956416;29;20460;-87
2020/12/27 13:56:40;;;;;;;11.20;10.50;;;3.50;99.90;;;;;;4955374;29;20462;-87
2020/12/27 13:59:07;;;;;;;11.47;10.77;;;3.50;99.90;;;;;;4955978;29;20468;-88
2020/12/27 14:01:33;;;;;;;10.37;9.77;;;3.50;99.90;;;;;;4955077;29;20572;-88
2020/12/27 14:03:59;;;;;;;10.93;10.10;;;3.50;99.90;;;;;;4955847;28;20845;-89
2020/12/27 14:06:27;;;;;;;12.43;11.53;;;3.50;99.90;;;;;;4955921;29;20479;-88
2020/12/27 14:08:54;;;;;;;11.27;10.60;;;3.50;99.90;;;;;;4955501;29;20484;-88
2020/12/27 14:11:21;;;;;;;11.40;10.63;;;3.60;99.90;;;;;;4955688;29;20954;-88
2020/12/27 14:13:47;;;;;;;10.50;9.90;;;3.60;99.90;;;;;;4959064;29;21140;-88
2020/12/27 14:16:14;;;;;;;11.37;10.53;;;3.60;99.90;;;;;;4962912;28;21099;-89
2020/12/27 14:18:40;;;;;;;11.83;11.10;;;3.60;99.90;;;;;;4962707;29;20823;-89
2020/12/27 14:21:07;;;;;;;12.27;11.10;;;3.60;99.90;;;;;;4959586;28;20468;-89
2020/12/27 14:23:33;;;;;;;11.97;11.27;;;3.70;99.90;;;;;;4955169;29;20536;-90
2020/12/27 14:26:00;;;;;;;11.80;11.20;;;3.70;99.90;;;;;;4962893;29;20534;-87
2020/12/27 14:28:27;;;;;;;10.23;9.63;;;3.70;99.90;;;;;;4963562;29;20491;-89
2020/12/27 14:30:53;;;;;;;10.97;10.37;;;3.70;99.90;;;;;;4959920;29;20470;-84
2020/12/27 14:33:23;;;;;;;11.50;10.80;;;3.70;99.90;;;;;;4958028;29;20445;-90
2020/12/27 14:35:58;;;;;;;10.80;10.20;;;3.70;99.90;;;;;;4971761;29;20518;-88
2020/12/27 14:39:09;;;;;;;11.20;10.50;;;3.70;99.90;;;;;;4974220;28;20461;-90
2020/12/27 14:45:57;;;;;;;10.13;9.43;;;3.60;99.90;;;;;;4910442;29;20434;-90
2020/12/27 14:48:28;;;;;;;8.97;8.47;;;3.60;99.90;;;;;;4912878;29;20466;-88
2020/12/27 14:51:08;;;;;;;11.10;10.40;;;3.60;99.90;;;;;;4934768;29;20456;-89
2020/12/27 14:56:48;;;;;;;11.03;10.20;;;3.70;99.90;;;;;;4968153;29;20491;-88
2020/12/27 14:59:47;;;;;;;11.70;10.73;;;3.80;99.90;;;;;;4971183;29;20467;-90
2020/12/27 15:02:25;;;;;;;9.50;9.00;;;3.70;99.90;;;;;;4974271;29;20484;-90
2020/12/27 15:04:55;;;;;;;10.00;9.40;;;3.80;99.90;;;;;;4963793;29;20469;-90
2020/12/27 15:07:23;;;;;;;10.43;9.83;;;3.90;99.90;;;;;;4958834;29;20586;-90
2020/12/27 15:09:51;;;;;;;11.53;10.83;;;4.00;99.90;;;;;;4967581;29;20853;-89
2020/12/27 15:12:39;;;;;;;11.63;11.03;;;4.00;99.90;;;;;;4976030;29;20460;-87
2020/12/27 15:18:29;;;;;;;11.93;11.33;;;3.90;99.90;;;;;;4964893;29;20822;-89
2020/12/27 15:20:58;;;;;;;11.90;11.13;;;3.90;99.90;;;;;;4964941;29;20950;-89
2020/12/27 15:23:37;;;;;;;10.33;9.70;;;3.90;99.90;;;;;;4963533;29;20508;-89
2020/12/27 15:26:33;;;;;;;11.90;11.20;;;3.90;99.90;;;;;;4966852;29;20464;-89
2020/12/27 15:32:16;;;;;;;11.63;10.77;;;3.90;99.90;;;;;;4844827;29;20468;-90
2020/12/27 15:34:43;;;;;;;10.40;9.80;;;4.00;99.90;;;;;;4914405;29;20467;-88
2020/12/27 15:37:09;;;;;;;10.80;10.10;;;4.00;99.90;;;;;;4964208;29;20501;-88
2020/12/27 15:39:36;;;;;;;11.80;10.70;;;4.10;99.90;;;;;;4970811;29;20543;-88
2020/12/27 15:42:02;;;;;;;10.60;9.90;;;4.10;99.90;;;;;;4978433;28;20827;-88
2020/12/27 15:44:31;;;;;;;9.53;9.00;;;4.10;99.90;;;;;;4976026;29;20503;-88
2020/12/27 15:46:58;;;;;;;10.23;9.70;;;4.10;99.90;;;;;;4968387;28;20441;-89
2020/12/27 15:49:25;;;;;;;10.40;9.90;;;4.20;99.90;;;;;;4967353;29;20469;-87
2020/12/27 15:51:51;;;;;;;9.80;9.30;;;4.20;99.60;;;;;;4955183;29;20574;-87
2020/12/27 15:54:18;;;;;;;10.40;8.80;;;4.30;97.70;;;;;;4955105;29;20531;-88
2020/12/27 15:56:44;;;;;;;8.80;8.40;;;4.30;97.20;;;;;;4955176;29;20527;-84
2020/12/27 15:59:11;;;;;;;9.80;9.37;;;4.40;96.40;;;;;;4953058;29;20458;-84
2020/12/27 16:01:37;;;;;;;8.97;8.67;;;4.40;97.00;;;;;;4952710;29;20477;-85
2020/12/27 16:04:03;;;;;;;9.13;8.73;;;4.30;96.80;;;;;;4952573;29;20854;-84
2020/12/27 16:06:30;;;;;;;9.63;9.03;;;4.40;96.30;;;;;;4952681;29;20467;-85
2020/12/27 16:08:56;;;;;;;10.73;10.20;;;4.40;96.50;;;;;;4952686;29;20497;-84
2020/12/27 16:11:24;;;;;;;9.53;9.13;;;4.40;97.10;;;;;;4952873;29;20503;-85
2020/12/27 16:13:50;;;;;;;9.90;9.40;;;4.30;96.70;;;;;;4952460;29;20457;-86
2020/12/27 16:16:17;;;;;;;10.00;9.40;;;4.40;96.80;;;;;;4952416;29;20452;-85
2020/12/27 16:18:43;;;;;;;9.87;9.33;;;4.40;97.20;;;;;;4952588;29;20843;-85
2020/12/27 16:21:10;;;;;;;11.20;10.50;;;4.30;97.80;;;;;;4952929;29;20457;-86
2020/12/27 16:23:37;;;;;;;10.10;9.60;;;4.30;97.60;;;;;;4952239;29;21032;-85
2020/12/27 16:26:03;;;;;;;9.50;9.00;;;4.30;97.70;;;;;;4952368;29;20463;-84
2020/12/27 16:28:29;;;;;;;10.10;9.23;;;4.20;97.50;;;;;;4952432;29;20452;-85
2020/12/27 16:30:55;;;;;;;10.97;10.13;;;4.30;98.00;;;;;;4952841;29;20832;-84
2020/12/27 16:33:21;;;;;;;10.40;9.80;;;4.30;97.90;;;;;;4952943;29;20454;-84
2020/12/27 16:35:48;;;;;;;9.90;9.40;;;4.20;98.40;;;;;;4952303;29;20463;-84
2020/12/27 16:38:14;;;;;;;10.87;10.27;;;4.30;97.60;;;;;;4952128;29;20972;-85
2020/12/27 16:40:43;;;;;;;9.30;8.80;;;4.30;97.20;;;;;;4951819;29;20452;-85
2020/12/27 16:43:09;;;;;;;10.23;9.73;;;4.30;97.10;;;;;;4952120;29;20516;-85
2020/12/27 16:45:35;;;;;;;11.10;10.50;;;4.40;96.80;;;;;;4951654;28;20457;-86
2020/12/27 16:48:01;;;;;;;10.30;9.60;;;4.40;97.20;;;;;;4952042;29;20609;-85
2020/12/27 16:50:27;;;;;;;9.80;9.33;;;4.40;97.40;;;;;;4951950;29;20461;-85
2020/12/27 16:52:54;;;;;;;10.60;9.90;;;4.40;97.40;;;;;;4951613;29;20452;-85
2020/12/27 16:55:20;;;;;;;9.80;9.27;;;4.40;97.50;;;;;;4952090;29;20452;-85
2020/12/27 16:57:47;;;;;;;8.87;8.47;;;4.40;97.00;;;;;;4951776;29;20451;-85
2020/12/27 17:00:14;;;;;;;8.47;8.10;;;4.50;97.10;;;;;;4951923;29;20487;-85
2020/12/27 17:02:40;;;;;;;9.60;9.00;;;4.50;96.60;;;;;;4952067;29;20458;-85
2020/12/27 17:05:06;;;;;;;9.93;9.43;;;4.50;96.40;;;;;;4951828;29;20460;-85
2020/12/27 17:07:32;;;;;;;9.70;9.20;;;4.60;96.30;;;;;;4951610;29;20538;-84
2020/12/27 17:09:58;;;;;;;10.17;9.47;;;4.60;96.20;;;;;;4951926;29;20946;-85
2020/12/27 17:12:25;;;;;;;9.50;9.00;;;4.70;95.90;;;;;;4951977;29;20500;-85
2020/12/27 17:14:52;;;;;;;9.70;9.20;;;4.70;96.20;;;;;;4951805;29;20512;-85
2020/12/27 17:17:18;;;;;;;9.60;9.10;;;4.70;96.10;;;;;;4951764;29;20458;-85
2020/12/27 17:19:44;;;;;;;11.10;9.83;;;4.70;96.50;;;;;;4951474;29;20451;-85
2020/12/27 17:22:10;;;;;;;8.30;7.90;;;4.60;96.50;;;;;;4951730;29;20456;-84
2020/12/27 17:24:37;;;;;;;9.10;8.70;;;4.70;95.50;;;;;;4951777;29;20518;-84
2020/12/27 17:27:03;;;;;;;10.10;9.60;;;4.80;94.90;;;;;;4951833;29;20955;-87
2020/12/27 17:29:29;;;;;;;10.40;10.00;;;4.80;95.10;;;;;;4951789;29;20467;-85
2020/12/27 17:31:59;;;;;;;10.50;9.80;;;4.80;95.40;;;;;;4951919;29;20449;-83
2020/12/27 17:34:25;;;;;;;9.33;8.90;;;4.90;95.00;;;;;;4951605;29;20477;-83
2020/12/27 17:36:51;;;;;;;9.97;9.37;;;5.00;94.60;;;;;;4951424;29;20459;-82
2020/12/27 17:39:18;;;;;;;9.47;9.03;;;5.10;94.30;;;;;;4951328;29;20943;-83
2020/12/27 17:41:44;;;;;;;9.77;9.10;;;5.20;93.70;;;;;;4951430;29;20465;-84
2020/12/27 17:44:10;;;;;;;10.30;9.80;;;5.30;93.50;;;;;;4951686;29;21012;-84
2020/12/27 17:46:36;;;;;;;9.97;9.40;;;5.30;94.10;;;;;;4950116;29;20478;-84
2020/12/27 17:49:03;;;;;;;10.17;9.77;;;5.30;94.10;;;;;;4952453;29;20457;-83
2020/12/27 17:51:29;;;;;;;10.10;9.70;;;5.30;94.00;;;;;;4963909;29;20449;-83
2020/12/27 17:53:55;;;;;;;10.50;9.90;;;5.40;94.20;;;;;;4970956;29;20946;-83
2020/12/27 17:56:22;;;;;;;10.77;10.27;;;5.40;93.50;;;;;;4960759;28;20480;-84
2020/12/27 17:58:50;;;;;;;10.83;10.33;;;5.40;93.90;;;;;;4958802;29;20453;-84
2020/12/27 18:01:21;;;;;;;9.70;9.30;;;5.40;94.00;;;;;;4955539;29;20472;-84
2020/12/27 18:03:47;;;;;;;10.20;9.70;;;5.40;93.90;;;;;;4955573;29;20894;-84
2020/12/27 18:06:14;;;;;;;9.40;9.03;;;5.40;93.50;;;;;;4955497;29;20473;-84
2020/12/27 18:08:40;;;;;;;10.60;10.03;;;5.60;93.70;;;;;;4955323;29;20976;-85
2020/12/27 18:11:06;;;;;;;9.60;9.20;;;5.60;93.50;;;;;;4954525;29;20970;-84
2020/12/27 18:13:33;;;;;;;10.47;9.73;;;5.60;93.50;;;;;;4954520;29;20503;-85
2020/12/27 18:15:59;;;;;;;10.23;9.73;;;5.60;93.50;;;;;;4954771;29;20465;-86
2020/12/27 18:18:25;;;;;;;10.20;9.70;;;5.70;93.50;;;;;;4954816;29;20466;-84
2020/12/27 18:20:51;;;;;;;9.20;8.80;;;5.70;93.70;;;;;;4954677;29;20904;-83
2020/12/27 18:23:18;;;;;;;8.83;8.43;;;5.80;93.40;;;;;;4954327;29;20699;-84
2020/12/27 18:25:45;;;;;;;9.17;8.77;;;5.90;92.60;;;;;;4954325;29;20455;-84
2020/12/27 18:28:11;;;;;;;9.17;8.70;;;6.00;92.40;;;;;;4954721;29;20518;-85
2020/12/27 18:30:37;;;;;;;8.80;8.40;;;6.00;92.60;;;;;;4954750;29;20451;-84
2020/12/27 18:33:03;;;;;;;9.97;9.47;;;6.10;92.40;;;;;;4954437;29;20505;-84
2020/12/27 18:35:29;;;;;;;9.70;9.30;;;6.00;92.50;;;;;;4953973;29;20454;-83
2020/12/27 18:37:55;;;;;;;10.30;9.70;;;6.10;92.50;;;;;;4954203;29;20523;-84
2020/12/27 18:40:23;;;;;;;9.30;8.63;;;6.10;92.60;;;;;;4954219;29;20448;-84
2020/12/27 18:42:50;;;;;;;10.03;9.47;;;6.10;92.60;;;;;;4954326;29;20464;-84
2020/12/27 18:45:16;;;;;;;9.93;9.43;;;6.20;92.60;;;;;;4955960;28;20478;-84
2020/12/27 18:47:42;;;;;;;8.97;8.60;;;6.30;92.30;;;;;;4954132;29;20455;-83
2020/12/27 18:50:08;;;;;;;9.60;9.20;;;6.40;92.10;;;;;;4953924;29;21039;-82
2020/12/27 18:52:34;;;;;;;9.77;9.20;;;6.50;91.70;;;;;;4953894;29;20456;-81
2020/12/27 18:55:00;;;;;;;9.43;9.03;;;6.60;91.20;;;;;;4954060;29;20451;-81
2020/12/27 18:57:27;;;;;;;9.97;9.57;;;6.70;91.50;;;;;;4953538;29;20456;-83
2020/12/27 18:59:53;;;;;;;9.20;8.80;;;6.70;91.10;;;;;;4953810;29;20449;-82
2020/12/27 19:02:20;;;;;;;7.73;7.53;;;6.80;91.00;;;;;;4953621;29;20463;-83
2020/12/27 19:04:46;;;;;;;9.43;9.03;;;6.90;91.00;;;;;;4953636;29;20498;-83
2020/12/27 19:07:12;;;;;;;9.03;8.63;;;6.90;91.10;;;;;;4953130;29;20953;-82
2020/12/27 19:09:38;;;;;;;8.93;8.63;;;6.90;91.20;;;;;;4953393;28;20466;-82
2020/12/27 19:12:06;;;;;;;8.17;7.77;;;6.90;91.00;;;;;;4953602;29;20457;-81
2020/12/27 19:14:33;;;;;;;9.10;8.60;;;7.00;90.90;;;;;;4953433;29;20465;-83
2020/12/27 19:17:00;;;;;;;8.63;8.33;;;7.10;90.90;;;;;;4953200;29;20455;-83
2020/12/27 19:19:26;;;;;;;8.67;8.37;;;7.10;90.90;;;;;;4953182;29;20468;-83
2020/12/27 19:21:53;;;;;;;9.30;8.90;;;7.10;91.00;;;;;;4953530;29;20455;-82
2020/12/27 19:24:19;;;;;;;8.80;8.50;;;7.20;90.80;;;;;;4952806;29;20590;-82
2020/12/27 19:26:45;;;;;;;9.70;9.10;;;7.20;90.90;;;;;;4953243;29;20843;-82
2020/12/27 19:29:12;;;;;;;8.70;8.17;;;7.20;91.30;;;;;;4953230;29;20518;-83
2020/12/27 19:31:39;;;;;;;8.90;8.50;;;7.10;91.80;;;;;;4953164;29;20455;-83
2020/12/27 19:34:05;;;;;;;10.47;9.80;;;7.00;91.90;;;;;;4952996;29;20444;-83
2020/12/27 19:36:32;;;;;;;9.47;9.07;;;6.90;92.10;;;;;;4953602;29;20498;-83
2020/12/27 19:38:58;;;;;;;8.40;8.10;;;6.90;92.10;;;;;;4953010;29;20470;-84
2020/12/27 19:41:24;;;;;;;9.30;8.80;;;7.00;91.90;;;;;;4953122;29;20467;-84
2020/12/27 19:43:50;;;;;;;9.50;9.10;;;7.00;91.70;;;;;;4952831;29;20849;-84
2020/12/27 19:46:19;;;;;;;9.50;9.10;;;7.00;92.00;;;;;;4952722;29;20463;-84
2020/12/27 19:48:46;;;;;;;9.13;8.73;;;6.90;92.20;;;;;;4952997;29;20452;-83
2020/12/27 19:51:13;;;;;;;10.07;9.57;;;6.90;92.10;;;;;;4952624;29;20454;-84
2020/12/27 19:53:39;;;;;;;9.37;8.77;;;6.90;92.30;;;;;;4952849;29;20456;-85
2020/12/27 19:56:06;;;;;;;10.07;9.50;;;6.90;92.40;;;;;;4952501;29;20464;-85
2020/12/27 19:58:33;;;;;;;9.20;8.80;;;6.90;92.50;;;;;;4952845;29;20479;-85
2020/12/27 20:00:59;;;;;;;9.23;8.83;;;6.90;92.60;;;;;;4952633;29;20539;-82
2020/12/27 20:03:26;;;;;;;9.20;8.80;;;6.90;92.70;;;;;;4952928;29;20858;-84
2020/12/27 20:05:53;;;;;;;9.00;8.63;;;6.90;92.50;;;;;;4958182;29;20455;-81
2020/12/27 20:08:19;;;;;;;9.93;9.33;;;6.80;93.00;;;;;;4962798;29;20487;-83
2020/12/27 20:10:45;;;;;;;9.07;8.73;;;6.70;93.20;;;;;;4956872;29;20456;-83
2020/12/27 20:13:12;;;;;;;9.97;9.47;;;6.70;93.50;;;;;;4952597;29;21018;-83
2020/12/27 20:15:39;;;;;;;9.63;9.23;;;6.60;93.60;;;;;;4952931;29;20850;-83
2020/12/27 20:18:06;;;;;;;9.20;8.80;;;6.70;93.70;;;;;;4952369;29;20461;-83
2020/12/27 20:20:32;;;;;;;9.50;9.00;;;6.70;93.40;;;;;;4952142;28;20507;-85
2020/12/27 20:23:00;;;;;;;8.70;8.30;;;6.90;93.10;;;;;;4952449;29;20456;-83
2020/12/27 20:25:26;;;;;;;9.43;9.03;;;7.00;93.10;;;;;;4952199;29;20868;-82
2020/12/27 20:27:52;;;;;;;9.03;8.67;;;7.20;93.10;;;;;;4952710;29;20452;-84
2020/12/27 20:30:19;;;;;;;9.10;8.70;;;7.20;93.50;;;;;;4951899;29;20461;-83
2020/12/27 20:32:45;;;;;;;9.40;8.90;;;7.10;94.00;;;;;;4952423;29;20906;-83
2020/12/27 20:35:11;;;;;;;9.30;8.83;;;7.10;94.30;;;;;;4954261;29;20491;-84
2020/12/27 20:37:38;;;;;;;9.47;9.07;;;6.90;94.50;;;;;;4951993;29;20460;-84
2020/12/27 20:40:06;;;;;;;9.00;8.60;;;6.80;95.00;;;;;;4958958;29;20444;-89
2020/12/27 20:42:33;;;;;;;10.17;9.63;;;6.60;95.90;;;;;;4952335;29;20458;-85
2020/12/27 20:44:59;;;;;;;10.00;9.60;;;6.50;96.40;;;;;;4952119;29;20500;-87
2020/12/27 20:47:26;;;;;;;10.60;10.17;;;6.40;97.30;;;;;;4951981;29;20815;-86
2020/12/27 20:49:53;;;;;;;11.40;11.00;;;6.30;98.00;;;;;;4952160;29;20478;-83
2020/12/27 20:52:19;;;;;;;14.43;13.83;;;6.50;97.90;;;;;;4951627;29;20460;-81
2020/12/27 20:54:46;;;;;;;15.70;15.00;;;6.40;99.40;;;;;;4951788;29;20461;-79
2020/12/27 20:57:13;;;;;;;21.47;20.47;;;6.30;99.90;;;;;;4951604;29;20451;-79
2020/12/27 20:59:39;;;;;;;21.43;20.57;;;6.10;99.90;;;;;;4951778;29;20459;-80
2020/12/27 21:02:05;;;;;;;22.10;21.20;;;5.90;99.90;;;;;;4951836;29;20845;-78
2020/12/27 21:04:31;;;;;;;20.23;19.20;;;5.90;99.90;;;;;;4951789;29;20498;-82
2020/12/27 21:06:58;;;;;;;21.77;20.87;;;6.10;99.90;;;;;;4952236;29;20461;-84
2020/12/27 21:09:24;;;;;;;21.53;20.73;;;6.10;99.90;;;;;;4951416;29;20549;-81
2020/12/27 21:11:50;;;;;;;21.73;20.83;;;6.20;99.90;;;;;;4951914;29;20452;-82
2020/12/27 21:14:18;;;;;;;22.00;21.10;;;6.20;99.90;;;;;;4951291;29;20461;-83
2020/12/27 21:16:44;;;;;;;21.83;21.00;;;6.40;99.90;;;;;;4951804;29;20571;-82
2020/12/27 21:19:10;;;;;;;20.50;19.70;;;6.60;99.90;;;;;;4951591;29;20463;-74
2020/12/27 21:21:36;;;;;;;21.43;20.63;;;6.60;99.90;;;;;;4951844;28;20525;-74
2020/12/27 21:24:04;;;;;;;21.07;20.27;;;6.50;99.90;;;;;;4951577;29;20495;-73
2020/12/27 21:26:30;;;;;;;21.40;20.70;;;6.60;99.90;;;;;;4953074;29;20852;-78
2020/12/27 21:28:57;;;;;;;22.93;22.13;;;6.70;99.90;;;;;;4951572;29;20798;-77
2020/12/27 21:31:24;;;;;;;21.70;20.90;;;6.90;99.90;;;;;;4953119;28;20457;-75
2020/12/27 21:33:50;;;;;;;19.60;18.90;;;7.00;99.90;;;;;;4955527;29;20533;-76
2020/12/27 21:36:16;;;;;;;20.20;19.40;;;7.30;99.90;;;;;;4955340;29;20460;-80
2020/12/27 21:38:43;;;;;;;18.73;18.13;;;7.30;99.90;;;;;;4955393;29;20447;-80
2020/12/27 21:41:13;;;;;;;16.30;15.80;;;7.40;99.90;;;;;;4955469;29;20468;-78
2020/12/27 21:43:43;;;;;;;16.27;15.70;;;7.50;99.90;;;;;;4955462;29;20488;-77
2020/12/27 21:46:10;;;;;;;14.90;14.40;;;7.50;99.90;;;;;;4955285;29;20463;-80
2020/12/27 21:48:37;;;;;;;13.90;13.50;;;7.60;99.90;;;;;;4955627;29;20449;-85
2020/12/27 21:51:04;;;;;;;12.30;11.90;;;7.50;99.90;;;;;;4955592;29;20507;-84
2020/12/27 21:53:30;;;;;;;10.17;9.87;;;7.50;99.90;;;;;;4955460;29;20882;-87
2020/12/27 21:55:56;;;;;;;9.00;8.70;;;7.60;99.90;;;;;;4956906;29;20483;-87
2020/12/27 21:58:23;;;;;;;9.30;9.00;;;7.70;99.90;;;;;;4960135;29;20962;-77
2020/12/27 22:00:49;;;;;;;9.80;9.50;;;7.80;99.90;;;;;;4954800;29;20476;-80
2020/12/27 22:03:15;;;;;;;9.60;9.30;;;7.80;99.90;;;;;;4955087;29;20566;-79
2020/12/27 22:05:42;;;;;;;9.70;9.10;;;7.90;99.90;;;;;;4955082;29;20818;-76
2020/12/27 22:08:08;;;;;;;9.03;8.73;;;7.90;99.90;;;;;;4956480;29;20852;-84
2020/12/27 22:10:35;;;;;;;9.40;9.07;;;7.90;99.90;;;;;;4955149;29;20448;-84
2020/12/27 22:13:01;;;;;;;9.40;9.10;;;8.00;99.90;;;;;;4954956;29;20701;-82
2020/12/27 22:15:27;;;;;;;9.43;9.13;;;8.00;99.90;;;;;;4954866;29;20456;-86
2020/12/27 22:17:53;;;;;;;9.10;8.80;;;8.10;99.90;;;;;;4956428;29;20471;-87
2020/12/27 22:20:19;;;;;;;9.20;8.80;;;8.20;99.90;;;;;;4961697;29;20459;-86
2020/12/27 22:22:47;;;;;;;8.77;8.47;;;8.20;99.90;;;;;;4977703;29;20465;-89
2020/12/27 22:25:13;;;;;;;8.70;8.50;;;8.20;99.90;;;;;;4973286;29;20494;-85
2020/12/27 22:27:39;;;;;;;10.00;9.70;;;8.10;99.90;;;;;;4956238;29;20453;-84
2020/12/27 22:30:06;;;;;;;9.83;9.43;;;8.00;99.90;;;;;;4955101;29;20461;-83
2020/12/27 22:32:32;;;;;;;9.60;9.30;;;8.00;99.90;;;;;;4954477;29;20459;-82
2020/12/27 22:34:58;;;;;;;9.17;8.90;;;7.90;99.90;;;;;;4954860;29;20548;-82
2020/12/27 22:37:24;;;;;;;9.63;9.33;;;7.90;99.90;;;;;;4954874;29;20462;-82
2020/12/27 22:39:51;;;;;;;10.13;9.83;;;7.90;99.90;;;;;;4954585;29;20539;-84
2020/12/27 22:42:18;;;;;;;10.30;10.00;;;7.90;99.90;;;;;;4953865;28;20456;-88